createdAt,value
2018-11-25T00:01:39.986Z,95421.89
2018-11-25T00:04:06.321Z,95426.50
2018-11-25T00:06:32.725Z,95421.27
2018-11-25T00:08:59.082Z,95421.45
2018-11-25T00:11:25.476Z,95421.06
2018-11-25T00:13:51.818Z,95426.12
2018-11-25T00:16:18.144Z,95421.45
2018-11-25T00:18:44.506Z,95429.13
2018-11-25T00:21:10.838Z,95424.84
2018-11-25T00:23:37.238Z,95421.83
2018-11-25T00:26:03.567Z,95416.32
2018-11-25T00:28:29.889Z,95408.70
2018-11-25T00:30:56.304Z,95409.92
2018-11-25T00:33:22.732Z,95397.11
2018-11-25T00:35:49.091Z,95390.78
2018-11-25T00:38:15.427Z,95383.47
2018-11-25T00:40:41.754Z,95377.90
2018-11-25T00:43:08.108Z,95375.34
2018-11-25T00:45:34.449Z,95370.77
2018-11-25T00:48:00.809Z,95372.58
2018-11-25T00:50:27.153Z,95368.55
2018-11-25T00:52:53.483Z,95363.53
2018-11-25T00:55:19.820Z,95359.59
2018-11-25T00:57:46.146Z,95358.14
2018-11-25T01:00:12.522Z,95357.96
2018-11-25T01:02:38.919Z,95354.47
2018-11-25T01:05:05.335Z,95354.57
2018-11-25T01:07:31.731Z,95354.55
2018-11-25T01:09:58.026Z,95355.75
2018-11-25T01:12:24.396Z,95353.29
2018-11-25T01:14:50.763Z,95345.16
2018-11-25T01:17:17.104Z,95348.44
2018-11-25T01:19:43.425Z,95342.29
2018-11-25T01:22:09.800Z,95349.45
2018-11-25T01:24:36.079Z,95346.13
2018-11-25T01:27:02.420Z,95337.65
2018-11-25T01:29:28.798Z,95336.89
2018-11-25T01:31:55.132Z,95340.10
2018-11-25T01:34:21.461Z,95340.03
2018-11-25T01:36:47.838Z,95336.37
2018-11-25T01:39:14.189Z,95333.42
2018-11-25T01:41:40.571Z,95332.42
2018-11-25T01:44:10.406Z,95327.09
2018-11-25T01:46:36.728Z,95330.31
2018-11-25T01:49:03.115Z,95337.65
2018-11-25T01:51:29.501Z,95329.78
2018-11-25T01:53:55.783Z,95332.98
2018-11-25T01:56:22.124Z,95330.41
2018-11-25T01:58:48.455Z,95332.05
2018-11-25T02:01:14.839Z,95320.89
2018-11-25T02:03:41.205Z,95324.47
2018-11-25T02:06:07.505Z,95324.98
2018-11-25T02:08:33.936Z,95314.48
2018-11-25T02:11:00.230Z,95313.66
2018-11-25T02:13:26.586Z,95316.59
2018-11-25T02:15:52.929Z,95313.39
2018-11-25T02:18:19.248Z,95307.81
2018-11-25T02:20:45.565Z,95301.59
2018-11-25T02:23:11.991Z,95296.92
2018-11-25T02:25:38.269Z,95291.06
2018-11-25T02:28:04.588Z,95283.94
2018-11-25T02:30:30.919Z,95270.86
2018-11-25T02:32:57.332Z,95272.14
2018-11-25T02:35:23.665Z,95276.81
2018-11-25T02:37:50.053Z,95266.84
2018-11-25T02:40:16.435Z,95271.20
2018-11-25T02:42:42.753Z,95267.92
2018-11-25T02:45:09.146Z,95272.03
2018-11-25T02:47:35.420Z,95268.11
2018-11-25T02:50:01.751Z,95267.02
2018-11-25T02:52:28.085Z,95272.86
2018-11-25T02:54:54.416Z,95278.89
2018-11-25T02:57:20.755Z,95275.05
2018-11-25T02:59:47.146Z,95271.87
2018-11-25T03:02:13.483Z,95279.90
2018-11-25T03:04:39.804Z,95276.81
2018-11-25T03:07:06.142Z,95272.22
2018-11-25T03:09:32.523Z,95267.65
2018-11-25T03:11:58.884Z,95257.95
2018-11-25T03:14:25.214Z,95266.00
2018-11-25T03:16:51.546Z,95258.58
2018-11-25T03:19:17.874Z,95257.41
2018-11-25T03:21:44.201Z,95256.02
2018-11-25T03:24:10.528Z,95258.95
2018-11-25T03:26:36.880Z,95250.70
2018-11-25T03:29:03.221Z,95253.83
2018-11-25T03:31:29.524Z,95248.72
2018-11-25T03:33:55.951Z,95248.34
2018-11-25T03:36:22.336Z,95245.58
2018-11-25T03:38:48.635Z,95243.84
2018-11-25T03:41:14.979Z,95234.41
2018-11-25T03:43:41.309Z,95236.47
2018-11-25T03:46:07.691Z,95229.61
2018-11-25T03:48:33.992Z,95235.08
2018-11-25T03:51:00.316Z,95231.23
2018-11-25T03:53:26.624Z,95217.26
2018-11-25T03:55:52.961Z,95214.40
2018-11-25T03:58:19.358Z,95218.69
2018-11-25T04:00:45.647Z,95204.16
2018-11-25T04:03:11.977Z,95214.47
2018-11-25T04:05:38.349Z,95210.03
2018-11-25T04:08:04.680Z,95200.77
2018-11-25T04:10:31.053Z,95209.73
2018-11-25T04:12:57.380Z,95214.74
2018-11-25T04:15:23.756Z,95224.72
2018-11-25T04:17:50.088Z,95242.49
2018-11-25T04:20:16.435Z,95247.69
2018-11-25T04:22:42.817Z,95235.03
2018-11-25T04:25:09.128Z,95232.84
2018-11-25T04:27:35.457Z,95234.13
2018-11-25T04:30:01.805Z,95234.51
2018-11-25T04:32:28.145Z,95230.92
2018-11-25T04:34:54.485Z,95230.84
2018-11-25T04:37:20.857Z,95225.80
2018-11-25T04:39:47.206Z,95225.80
2018-11-25T04:42:13.536Z,95229.30
2018-11-25T04:44:39.866Z,95223.16
2018-11-25T04:47:06.196Z,95223.44
2018-11-25T04:49:32.525Z,95220.61
2018-11-25T04:51:58.866Z,95217.85
2018-11-25T04:54:25.200Z,95217.30
2018-11-25T04:56:51.528Z,95214.09
2018-11-25T04:59:17.863Z,95214.55
2018-11-25T05:01:44.240Z,95214.01
2018-11-25T05:04:10.564Z,95214.73
2018-11-25T05:06:36.909Z,95213.83
2018-11-25T05:09:03.240Z,95208.89
2018-11-25T05:11:29.614Z,95202.03
2018-11-25T05:13:55.954Z,95193.45
2018-11-25T05:16:22.364Z,95198.09
2018-11-25T05:18:48.704Z,95208.44
2018-11-25T05:21:15.044Z,95207.42
2018-11-25T05:23:41.370Z,95203.50
2018-11-25T05:26:07.751Z,95189.05
2018-11-25T05:28:34.087Z,95194.63
2018-11-25T05:31:00.490Z,95193.91
2018-11-25T05:33:26.825Z,95193.72
2018-11-25T05:35:53.270Z,95199.67
2018-11-25T05:38:19.625Z,95200.39
2018-11-25T05:40:45.913Z,95200.02
2018-11-25T05:43:12.229Z,95194.81
2018-11-25T05:45:38.545Z,95200.38
2018-11-25T05:48:04.943Z,95205.88
2018-11-25T05:50:31.258Z,95211.36
2018-11-25T05:52:57.587Z,95210.35
2018-11-25T05:55:23.924Z,95207.14
2018-11-25T05:57:50.248Z,95199.84
2018-11-25T06:00:16.636Z,95205.13
2018-11-25T06:02:42.960Z,95199.67
2018-11-25T06:05:09.290Z,95203.13
2018-11-25T06:07:35.607Z,95202.50
2018-11-25T06:10:02.003Z,95202.76
2018-11-25T06:12:28.386Z,95200.95
2018-11-25T06:14:54.705Z,95198.39
2018-11-25T06:17:21.059Z,95198.55
2018-11-25T06:19:47.383Z,95195.19
2018-11-25T06:22:13.777Z,95201.44
2018-11-25T06:24:40.115Z,95198.87
2018-11-25T06:27:06.522Z,95194.81
2018-11-25T06:29:32.829Z,95200.13
2018-11-25T06:31:59.169Z,95200.39
2018-11-25T06:34:25.509Z,95196.47
2018-11-25T06:36:51.841Z,95198.77
2018-11-25T06:39:18.175Z,95204.80
2018-11-25T06:41:44.514Z,95202.16
2018-11-25T06:44:10.898Z,95193.84
2018-11-25T06:46:37.231Z,95193.20
2018-11-25T06:49:03.576Z,95188.53
2018-11-25T06:51:29.884Z,95180.84
2018-11-25T06:53:56.211Z,95177.84
2018-11-25T06:56:27.366Z,95172.15
2018-11-25T06:58:48.965Z,95174.98
2018-11-25T07:01:15.331Z,95173.95
2018-11-25T07:03:41.827Z,95172.67
2018-11-25T07:06:08.177Z,95170.23
2018-11-25T07:08:34.535Z,95182.66
2018-11-25T07:11:00.830Z,95181.94
2018-11-25T07:13:27.174Z,95180.66
2018-11-25T07:15:53.534Z,95191.44
2018-11-25T07:18:19.929Z,95203.61
2018-11-25T07:20:46.251Z,95201.50
2018-11-25T07:23:12.604Z,95203.72
2018-11-25T07:25:38.922Z,95196.03
2018-11-25T07:28:17.960Z,95190.45
2018-11-25T07:30:31.633Z,95184.40
2018-11-25T07:32:57.985Z,95187.14
2018-11-25T07:35:24.311Z,95181.83
2018-11-25T07:37:50.630Z,95179.56
2018-11-25T07:40:16.971Z,95185.86
2018-11-25T07:42:43.307Z,95191.63
2018-11-25T07:45:09.742Z,95188.42
2018-11-25T07:47:36.066Z,95187.14
2018-11-25T07:50:02.401Z,95193.17
2018-11-25T07:52:28.732Z,95194.38
2018-11-25T07:54:55.083Z,95197.47
2018-11-25T07:57:21.416Z,95200.14
2018-11-25T07:59:47.757Z,95198.94
2018-11-25T08:02:14.216Z,95195.92
2018-11-25T08:04:40.532Z,95193.92
2018-11-25T08:07:06.855Z,95186.23
2018-11-25T08:09:33.190Z,95176.81
2018-11-25T08:11:59.537Z,95168.20
2018-11-25T08:14:25.915Z,95165.10
2018-11-25T08:16:52.248Z,95168.00
2018-11-25T08:19:18.576Z,95172.87
2018-11-25T08:21:44.955Z,95171.84
2018-11-25T08:24:11.283Z,95174.98
2018-11-25T08:26:37.603Z,95178.63
2018-11-25T08:29:03.998Z,95175.69
2018-11-25T08:31:30.405Z,95168.75
2018-11-25T08:33:56.728Z,95171.31
2018-11-25T08:36:23.119Z,95170.75
2018-11-25T08:38:49.447Z,95169.09
2018-11-25T08:41:15.820Z,95175.98
2018-11-25T08:43:42.157Z,95167.55
2018-11-25T08:46:08.586Z,95159.04
2018-11-25T08:48:34.918Z,95155.56
2018-11-25T08:51:01.304Z,95149.61
2018-11-25T08:53:27.624Z,95145.05
2018-11-25T08:55:54.035Z,95132.77
2018-11-25T08:58:20.344Z,95139.29
2018-11-25T09:00:46.729Z,95135.07
2018-11-25T09:03:13.118Z,95132.69
2018-11-25T09:05:39.506Z,95124.44
2018-11-25T09:08:05.974Z,95121.05
2018-11-25T09:10:32.299Z,95116.37
2018-11-25T09:12:58.666Z,95105.67
2018-11-25T09:15:24.993Z,95109.63
2018-11-25T09:17:51.383Z,95104.13
2018-11-25T09:20:17.701Z,95103.56
2018-11-25T09:22:44.145Z,95094.89
2018-11-25T09:25:10.546Z,95090.22
2018-11-25T09:27:36.842Z,95079.77
2018-11-25T09:30:03.183Z,95078.49
2018-11-25T09:32:29.603Z,95075.17
2018-11-25T09:34:55.933Z,95070.04
2018-11-25T09:37:22.245Z,95068.76
2018-11-25T09:39:48.578Z,95062.98
2018-11-25T09:42:14.940Z,95054.76
2018-11-25T09:44:41.238Z,95057.46
2018-11-25T09:47:07.628Z,95050.14
2018-11-25T09:49:33.965Z,95046.41
2018-11-25T09:52:00.299Z,95047.70
2018-11-25T09:54:26.644Z,95039.80
2018-11-25T09:56:53.018Z,95041.74
2018-11-25T09:59:19.420Z,95046.55
2018-11-25T10:01:45.727Z,95039.03
2018-11-25T10:04:14.890Z,95035.31
2018-11-25T10:06:41.210Z,95032.17
2018-11-25T10:09:07.541Z,95025.52
2018-11-25T10:11:33.926Z,95026.51
2018-11-25T10:14:00.256Z,95026.42
2018-11-25T10:16:26.619Z,95022.13
2018-11-25T10:18:53.039Z,95027.13
2018-11-25T10:21:19.416Z,95025.05
2018-11-25T10:23:45.741Z,95019.10
2018-11-25T10:26:12.079Z,95016.09
2018-11-25T10:28:38.458Z,95014.06
2018-11-25T10:31:04.807Z,95013.52
2018-11-25T10:33:31.245Z,95005.91
2018-11-25T10:35:57.576Z,95001.78
2018-11-25T10:38:23.905Z,94998.48
2018-11-25T10:40:50.229Z,94996.91
2018-11-25T10:43:16.637Z,94991.98
2018-11-25T10:45:42.967Z,94986.03
2018-11-25T10:48:09.357Z,94988.14
2018-11-25T10:50:35.687Z,94991.78
2018-11-25T10:53:02.117Z,94978.02
2018-11-25T10:55:28.432Z,94975.00
2018-11-25T10:57:54.774Z,94980.87
2018-11-25T11:00:21.112Z,94972.09
2018-11-25T11:02:47.448Z,94966.23
2018-11-25T11:05:13.848Z,94965.12
2018-11-25T11:07:40.196Z,94966.77
2018-11-25T11:10:06.527Z,94973.52
2018-11-25T11:12:32.860Z,94962.80
2018-11-25T11:14:59.188Z,94964.09
2018-11-25T11:17:25.510Z,94965.48
2018-11-25T11:19:51.907Z,94959.41
2018-11-25T11:22:18.246Z,94962.19
2018-11-25T11:24:44.582Z,94959.08
2018-11-25T11:27:10.925Z,94952.47
2018-11-25T11:29:37.336Z,94949.78
2018-11-25T11:32:03.629Z,94951.02
2018-11-25T11:34:29.960Z,94944.16
2018-11-25T11:36:56.326Z,94947.80
2018-11-25T11:39:22.628Z,94941.02
2018-11-25T11:41:49.008Z,94938.16
2018-11-25T11:44:15.338Z,94939.44
2018-11-25T11:46:41.671Z,94928.27
2018-11-25T11:49:08.008Z,94921.03
2018-11-25T11:51:34.373Z,94911.69
2018-11-25T11:54:00.710Z,94910.62
2018-11-25T11:56:27.099Z,94916.11
2018-11-25T11:58:53.427Z,94911.48
2018-11-25T12:01:19.814Z,94907.64
2018-11-25T12:03:46.170Z,94897.95
2018-11-25T12:06:12.537Z,94892.71
2018-11-25T12:08:38.852Z,94882.83
2018-11-25T12:11:05.213Z,94874.43
2018-11-25T12:13:31.588Z,94873.84
2018-11-25T12:15:57.930Z,94872.45
2018-11-25T12:18:24.293Z,94863.47
2018-11-25T12:20:50.627Z,94862.56
2018-11-25T12:23:16.959Z,94857.80
2018-11-25T12:25:43.284Z,94847.63
2018-11-25T12:28:09.734Z,94847.75
2018-11-25T12:30:36.129Z,94846.34
2018-11-25T12:33:02.441Z,94847.55
2018-11-25T12:35:28.788Z,94842.69
2018-11-25T12:37:55.178Z,94850.02
2018-11-25T12:40:21.498Z,94846.59
2018-11-25T12:42:47.822Z,94836.00
2018-11-25T12:45:14.166Z,94830.97
2018-11-25T12:47:40.493Z,94827.36
2018-11-25T12:50:06.874Z,94825.66
2018-11-25T12:52:33.254Z,94818.79
2018-11-25T12:54:59.579Z,94818.70
2018-11-25T12:57:25.917Z,94811.19
2018-11-25T12:59:52.292Z,94811.98
2018-11-25T13:02:18.666Z,94808.98
2018-11-25T13:04:44.999Z,94802.03
2018-11-25T13:07:11.324Z,94793.88
2018-11-25T13:09:37.658Z,94785.82
2018-11-25T13:12:03.992Z,94793.88
2018-11-25T13:14:30.326Z,94793.05
2018-11-25T13:16:56.658Z,94784.62
2018-11-25T13:19:22.971Z,94784.08
2018-11-25T13:21:49.342Z,94785.48
2018-11-25T13:24:15.759Z,94783.04
2018-11-25T13:26:42.001Z,94777.55
2018-11-25T13:29:08.344Z,94772.08
2018-11-25T13:31:34.665Z,94757.34
2018-11-25T13:34:01.059Z,94756.42
2018-11-25T13:36:27.391Z,94761.00
2018-11-25T13:38:53.793Z,94761.00
2018-11-25T13:41:20.142Z,94754.47
2018-11-25T13:43:46.468Z,94753.77
2018-11-25T13:46:12.854Z,94760.27
2018-11-25T13:48:39.231Z,94758.13
2018-11-25T13:51:05.548Z,94761.09
2018-11-25T13:53:31.899Z,94762.06
2018-11-25T13:55:58.216Z,94749.80
2018-11-25T13:58:24.633Z,94751.20
2018-11-25T14:00:51.065Z,94746.99
2018-11-25T14:03:17.386Z,94740.19
2018-11-25T14:05:43.703Z,94743.33
2018-11-25T14:08:10.062Z,94749.34
2018-11-25T14:10:36.372Z,94737.92
2018-11-25T14:13:02.694Z,94751.30
2018-11-25T14:15:29.709Z,94747.38
2018-11-25T14:17:55.379Z,94750.75
2018-11-25T14:20:21.785Z,94745.19
2018-11-25T14:22:48.131Z,94736.45
2018-11-25T14:25:14.500Z,94737.15
2018-11-25T14:27:40.841Z,94729.13
2018-11-25T14:30:13.204Z,94727.25
2018-11-25T14:32:33.562Z,94718.04
2018-11-25T14:34:59.900Z,94730.19
2018-11-25T14:37:26.273Z,94729.58
2018-11-25T14:39:52.603Z,94727.27
2018-11-25T14:42:18.935Z,94730.56
2018-11-25T14:44:45.269Z,94721.59
2018-11-25T14:47:11.630Z,94726.27
2018-11-25T14:49:37.927Z,94724.02
2018-11-25T14:52:04.254Z,94714.11
2018-11-25T14:54:30.609Z,94714.72
2018-11-25T14:56:57.109Z,94721.59
2018-11-25T14:59:23.427Z,94715.18
2018-11-25T15:01:49.754Z,94702.45
2018-11-25T15:04:16.087Z,94706.20
2018-11-25T15:06:42.543Z,94699.88
2018-11-25T15:09:08.871Z,94706.42
2018-11-25T15:11:35.200Z,94705.62
2018-11-25T15:14:01.541Z,94723.11
2018-11-25T15:16:27.895Z,94711.34
2018-11-25T15:18:54.225Z,94698.05
2018-11-25T15:21:20.604Z,94712.16
2018-11-25T15:23:47.242Z,94698.28
2018-11-25T15:26:13.554Z,94703.66
2018-11-25T15:28:39.895Z,94704.57
2018-11-25T15:31:06.267Z,94694.67
2018-11-25T15:33:32.649Z,94699.11
2018-11-25T15:35:58.942Z,94696.77
2018-11-25T15:38:25.265Z,94706.67
2018-11-25T15:40:51.613Z,94702.69
2018-11-25T15:43:18.189Z,94698.06
2018-11-25T15:45:45.492Z,94704.94
2018-11-25T15:48:11.829Z,94707.72
2018-11-25T15:50:38.197Z,94704.94
2018-11-25T15:53:04.552Z,94693.39
2018-11-25T15:55:30.926Z,94700.27
2018-11-25T15:57:57.251Z,94681.48
2018-11-25T16:00:23.588Z,94690.95
2018-11-25T16:02:49.984Z,94685.09
2018-11-25T16:05:16.312Z,94694.20
2018-11-25T16:07:42.646Z,94683.81
2018-11-25T16:10:09.012Z,94682.44
2018-11-25T16:12:35.385Z,94687.11
2018-11-25T16:15:01.801Z,94683.72
2018-11-25T16:17:28.102Z,94684.41
2018-11-25T16:19:54.461Z,94679.41
2018-11-25T16:22:20.787Z,94681.97
2018-11-25T16:24:47.163Z,94681.16
2018-11-25T16:27:13.517Z,94680.33
2018-11-25T16:29:39.825Z,94673.79
2018-11-25T16:32:06.176Z,94677.54
2018-11-25T16:34:32.506Z,94675.80
2018-11-25T16:36:58.921Z,94677.41
2018-11-25T16:39:25.276Z,94677.08
2018-11-25T16:41:51.706Z,94687.12
2018-11-25T16:44:18.083Z,94670.67
2018-11-25T16:46:44.416Z,94667.28
2018-11-25T16:49:10.736Z,94661.19
2018-11-25T16:51:37.128Z,94657.42
2018-11-25T16:54:03.588Z,94657.09
2018-11-25T16:56:29.928Z,94653.80
2018-11-25T16:58:56.324Z,94648.43
2018-11-25T17:01:22.707Z,94644.72
2018-11-25T17:03:49.189Z,94644.11
2018-11-25T17:06:15.547Z,94646.55
2018-11-25T17:08:41.875Z,94640.14
2018-11-25T17:11:08.173Z,94639.30
2018-11-25T17:13:34.519Z,94633.25
2018-11-25T17:16:00.853Z,94623.00
2018-11-25T17:18:27.187Z,94619.52
2018-11-25T17:20:53.529Z,94618.52
2018-11-25T17:23:19.859Z,94616.46
2018-11-25T17:25:46.277Z,94616.95
2018-11-25T17:28:12.729Z,94623.23
2018-11-25T17:30:39.037Z,94622.08
2018-11-25T17:33:05.384Z,94619.02
2018-11-25T17:35:31.762Z,94622.64
2018-11-25T17:37:58.167Z,94612.57
2018-11-25T17:40:24.541Z,94616.88
2018-11-25T17:42:50.909Z,94616.69
2018-11-25T17:45:17.270Z,94620.95
2018-11-25T17:47:43.630Z,94611.19
2018-11-25T17:50:10.061Z,94606.98
2018-11-25T17:52:36.457Z,94617.00
2018-11-25T17:55:02.837Z,94611.51
2018-11-25T17:57:29.162Z,94603.59
2018-11-25T17:59:55.461Z,94602.91
2018-11-25T18:02:21.839Z,94597.31
2018-11-25T18:04:48.193Z,94596.13
2018-11-25T18:07:14.540Z,94595.20
2018-11-25T18:09:40.865Z,94584.81
2018-11-25T18:12:07.270Z,94580.97
2018-11-25T18:14:33.720Z,94581.66
2018-11-25T18:17:00.053Z,94577.81
2018-11-25T18:19:26.399Z,94559.87
2018-11-25T18:21:52.732Z,94561.16
2018-11-25T18:24:19.176Z,94563.48
2018-11-25T18:26:45.626Z,94544.70
2018-11-25T18:29:11.962Z,94544.72
2018-11-25T18:31:38.289Z,94543.44
2018-11-25T18:34:04.681Z,94548.00
2018-11-25T18:36:31.012Z,94547.28
2018-11-25T18:38:57.348Z,94555.80
2018-11-25T18:41:26.326Z,94546.45
2018-11-25T18:43:52.760Z,94544.48
2018-11-25T18:46:19.173Z,94547.50
2018-11-25T18:48:45.523Z,94555.43
2018-11-25T18:51:11.983Z,94565.23
2018-11-25T18:53:38.347Z,94563.48
2018-11-25T18:56:04.682Z,94560.23
2018-11-25T18:58:31.084Z,94557.30
2018-11-25T19:00:57.400Z,94553.22
2018-11-25T19:03:23.757Z,94542.14
2018-11-25T19:05:50.144Z,94545.98
2018-11-25T19:08:16.463Z,94539.13
2018-11-25T19:10:42.821Z,94556.23
2018-11-25T19:13:09.162Z,94544.34
2018-11-25T19:15:35.515Z,94541.91
2018-11-25T19:18:01.929Z,94533.72
2018-11-25T19:20:28.273Z,94537.69
2018-11-25T19:22:54.609Z,94525.80
2018-11-25T19:25:20.963Z,94524.19
2018-11-25T19:27:47.366Z,94517.05
2018-11-25T19:30:13.723Z,94514.16
2018-11-25T19:32:40.066Z,94517.64
2018-11-25T19:35:06.396Z,94519.39
2018-11-25T19:37:32.774Z,94511.92
2018-11-25T19:39:59.126Z,94498.42
2018-11-25T19:42:25.472Z,94497.14
2018-11-25T19:44:51.797Z,94502.03
2018-11-25T19:47:18.179Z,94516.45
2018-11-25T19:49:44.529Z,94524.73
2018-11-25T19:52:10.875Z,94521.71
2018-11-25T19:54:37.214Z,94515.89
2018-11-25T19:57:03.570Z,94515.77
2018-11-25T19:59:29.924Z,94498.19
2018-11-25T20:01:56.248Z,94507.38
2018-11-25T20:04:22.563Z,94503.77
2018-11-25T20:06:48.926Z,94508.30
2018-11-25T20:09:15.275Z,94499.09
2018-11-25T20:11:41.775Z,94497.91
2018-11-25T20:14:08.100Z,94493.84
2018-11-25T20:16:34.430Z,94487.44
2018-11-25T20:19:00.758Z,94490.59
2018-11-25T20:21:27.094Z,94465.65
2018-11-25T20:23:53.422Z,94477.88
2018-11-25T20:26:19.796Z,94463.45
2018-11-25T20:28:46.134Z,94471.23
2018-11-25T20:31:12.480Z,94471.83
2018-11-25T20:33:38.816Z,94457.14
2018-11-25T20:36:05.155Z,94452.37
2018-11-25T20:38:31.538Z,94440.61
2018-11-25T20:40:57.888Z,94453.06
2018-11-25T20:43:24.182Z,94457.27
2018-11-25T20:45:50.528Z,94456.44
2018-11-25T20:48:16.852Z,94447.94
2018-11-25T20:50:43.181Z,94447.11
2018-11-25T20:53:09.500Z,94449.81
2018-11-25T20:55:35.841Z,94441.62
2018-11-25T20:58:02.169Z,94428.95
2018-11-25T21:00:28.498Z,94435.23
2018-11-25T21:02:54.819Z,94426.38
2018-11-25T21:05:21.156Z,94432.56
2018-11-25T21:07:47.482Z,94426.02
2018-11-25T21:10:13.828Z,94435.81
2018-11-25T21:12:40.144Z,94423.69
2018-11-25T21:15:06.474Z,94430.09
2018-11-25T21:17:32.805Z,94419.84
2018-11-25T21:19:59.190Z,94398.43
2018-11-25T21:22:25.520Z,94402.73
2018-11-25T21:24:51.852Z,94400.63
2018-11-25T21:27:18.204Z,94409.83
2018-11-25T21:29:44.559Z,94417.74
2018-11-25T21:32:10.903Z,94417.05
2018-11-25T21:34:37.233Z,94403.88
2018-11-25T21:37:03.551Z,94417.28
2018-11-25T21:39:29.882Z,94414.63
2018-11-25T21:41:56.228Z,94409.72
2018-11-25T21:44:22.556Z,94407.16
2018-11-25T21:46:48.937Z,94406.34
2018-11-25T21:49:15.276Z,94411.92
2018-11-25T21:51:41.637Z,94419.38
2018-11-25T21:54:07.956Z,94406.44
2018-11-25T21:56:34.280Z,94423.13
2018-11-25T21:59:00.667Z,94396.20
2018-11-25T22:01:26.958Z,94399.58
2018-11-25T22:03:53.288Z,94402.83
2018-11-25T22:06:19.658Z,94421.12
2018-11-25T22:08:46.011Z,94421.35
2018-11-25T22:11:12.340Z,94403.55
2018-11-25T22:13:38.716Z,94411.47
2018-11-25T22:16:05.043Z,94393.77
2018-11-25T22:18:31.371Z,94389.92
2018-11-25T22:20:57.710Z,94391.30
2018-11-25T22:23:24.041Z,94390.97
2018-11-25T22:25:50.420Z,94399.34
2018-11-25T22:28:16.749Z,94406.11
2018-11-25T22:30:43.098Z,94401.67
2018-11-25T22:33:09.459Z,94397.61
2018-11-25T22:35:35.777Z,94388.14
2018-11-25T22:38:02.132Z,94383.74
2018-11-25T22:40:28.485Z,94388.60
2018-11-25T22:42:54.845Z,94392.80
2018-11-25T22:45:21.211Z,94380.36
2018-11-25T22:47:47.535Z,94370.94
2018-11-25T22:50:13.878Z,94361.97
2018-11-25T22:52:40.225Z,94360.33
2018-11-25T22:55:06.554Z,94361.84
2018-11-25T22:57:32.871Z,94356.25
2018-11-25T22:59:59.202Z,94346.47
2018-11-25T23:02:25.539Z,94352.87
2018-11-25T23:04:51.867Z,94346.11
2018-11-25T23:07:18.251Z,94346.34
2018-11-25T23:09:44.610Z,94338.33
2018-11-25T23:12:10.936Z,94354.97
2018-11-25T23:14:37.242Z,94359.27
2018-11-25T23:17:03.623Z,94343.55
2018-11-25T23:19:29.966Z,94320.16
2018-11-25T23:21:56.305Z,94336.81
2018-11-25T23:24:22.630Z,94356.95
2018-11-25T23:26:48.999Z,94353.92
2018-11-25T23:29:15.290Z,94361.02
2018-11-25T23:31:41.625Z,94353.33
2018-11-25T23:34:07.958Z,94346.70
2018-11-25T23:36:34.293Z,94327.26
2018-11-25T23:39:00.626Z,94321.18
2018-11-25T23:41:26.960Z,94319.80
2018-11-25T23:43:53.280Z,94321.09
2018-11-25T23:46:19.610Z,94323.05
2018-11-25T23:48:45.936Z,94323.64
2018-11-25T23:51:12.322Z,94319.08
2018-11-25T23:53:38.627Z,94298.03
2018-11-25T23:56:04.982Z,94278.59
2018-11-25T23:58:31.319Z,94282.89
